Time;durP1;ratioP1;P1;durP2;ratioP2;P2;SDS_P1;SDS_P2;PMS_P1;PMS_P2;Temp;Humidity;BMP_temperature;BMP_pressure;BME280_temperature;BME280_humidity;BME280_pressure;Samples;Min_cycle;Max_cycle;Signal;HPM_P1;HPM_P2
2022/12/14 00:01:37;;;;;;;6.35;4.28;;;;;;;;;;5011809;28;20398;-68
2022/12/14 00:04:04;;;;;;;4.57;2.30;;;;;;;;;;5011969;28;20022;-68
2022/12/14 00:06:31;;;;;;;0.98;0.90;;;;;;;;;;5011339;28;20442;-67
2022/12/14 00:08:59;;;;;;;2.15;0.70;;;;;;;;;;5011569;28;20369;-68
2022/12/14 00:11:25;;;;;;;0.60;0.60;;;;;;;;;;5014796;28;20034;-68
2022/12/14 00:13:55;;;;;;;1.58;0.40;;;;;;;;;;5015180;28;20037;-68
2022/12/14 00:16:23;;;;;;;0.47;0.40;;;;;;;;;;5015021;28;20406;-68
2022/12/14 00:18:51;;;;;;;4.13;0.77;;;;;;;;;;5014864;28;20249;-68
2022/12/14 00:21:18;;;;;;;2.05;0.93;;;;;;;;;;5014452;28;20032;-68
2022/12/14 00:23:45;;;;;;;2.20;1.30;;;;;;;;;;5015100;28;20568;-68
2022/12/14 00:26:22;;;;;;;1.67;1.10;;;;;;;;;;5014713;28;20058;-68
2022/12/14 00:28:49;;;;;;;2.03;1.17;;;;;;;;;;5014725;28;20036;-67
2022/12/14 00:31:16;;;;;;;4.53;2.47;;;;;;;;;;5014513;28;20034;-68
2022/12/14 00:33:43;;;;;;;6.57;2.53;;;;;;;;;;5014786;28;20022;-68
2022/12/14 00:36:10;;;;;;;5.53;2.17;;;;;;;;;;5014615;28;20040;-67
2022/12/14 00:38:36;;;;;;;3.33;1.90;;;;;;;;;;5014420;28;20428;-68
2022/12/14 00:41:03;;;;;;;4.18;1.95;;;;;;;;;;5014587;28;20026;-68
2022/12/14 00:43:29;;;;;;;3.20;1.70;;;;;;;;;;5014406;28;20499;-67
2022/12/14 00:45:56;;;;;;;3.83;1.83;;;;;;;;;;5014422;28;20021;-68
2022/12/14 00:48:23;;;;;;;2.50;1.17;;;;;;;;;;5014146;28;20520;-67
2022/12/14 00:50:50;;;;;;;3.28;2.08;;;;;;;;;;5014346;28;20040;-67
2022/12/14 00:53:17;;;;;;;4.45;3.45;;;;;;;;;;5014606;28;20391;-68
2022/12/14 00:55:44;;;;;;;6.93;3.35;;;;;;;;;;5014698;28;20038;-68
2022/12/14 00:58:11;;;;;;;5.55;3.67;;;;;;;;;;5014332;28;20030;-68
2022/12/14 01:00:38;;;;;;;5.93;4.40;;;;;;;;;;5014243;28;20037;-68
2022/12/14 01:03:05;;;;;;;5.47;4.10;;;;;;;;;;5014178;28;20026;-68
2022/12/14 01:05:33;;;;;;;5.43;3.90;;;;;;;;;;5014118;28;20452;-68
2022/12/14 01:07:59;;;;;;;4.70;3.88;;;;;;;;;;5012914;28;20026;-68
2022/12/14 01:10:25;;;;;;;4.90;4.07;;;;;;;;;;5014281;28;20040;-67
2022/12/14 01:12:52;;;;;;;6.68;3.90;;;;;;;;;;5014036;28;20417;-67
2022/12/14 01:15:18;;;;;;;5.68;3.80;;;;;;;;;;5013945;28;20034;-65
2022/12/14 01:17:44;;;;;;;6.85;5.43;;;;;;;;;;5013539;28;20032;-66
2022/12/14 01:20:11;;;;;;;9.02;5.25;;;;;;;;;;5013968;28;20402;-67
2022/12/14 01:22:38;;;;;;;7.07;4.47;;;;;;;;;;5014103;28;20010;-68
2022/12/14 01:25:04;;;;;;;5.20;4.22;;;;;;;;;;5012533;28;20032;-67
2022/12/14 01:27:31;;;;;;;8.73;5.25;;;;;;;;;;5013943;28;20032;-68
2022/12/14 01:29:57;;;;;;;10.25;5.45;;;;;;;;;;5013638;28;20037;-68
2022/12/14 01:32:24;;;;;;;10.93;6.32;;;;;;;;;;5013476;28;20032;-67
2022/12/14 01:34:52;;;;;;;6.85;5.10;;;;;;;;;;5013855;28;20030;-68
2022/12/14 01:37:18;;;;;;;9.85;6.30;;;;;;;;;;5013402;28;20052;-68
2022/12/14 01:39:46;;;;;;;7.68;5.63;;;;;;;;;;5013702;28;20040;-68
2022/12/14 01:42:13;;;;;;;7.22;5.15;;;;;;;;;;5013356;28;20480;-67
2022/12/14 01:44:39;;;;;;;9.60;5.60;;;;;;;;;;5013320;28;20034;-67
2022/12/14 01:47:17;;;;;;;6.40;4.65;;;;;;;;;;5013191;28;20032;-67
2022/12/14 01:49:47;;;;;;;6.65;4.90;;;;;;;;;;5013355;28;20040;-68
2022/12/14 01:52:19;;;;;;;7.25;5.35;;;;;;;;;;5013283;28;20018;-67
2022/12/14 01:54:48;;;;;;;7.20;4.65;;;;;;;;;;5013074;28;20434;-67
2022/12/14 01:57:16;;;;;;;8.60;5.40;;;;;;;;;;5013414;28;20022;-68
2022/12/14 01:59:45;;;;;;;7.80;5.20;;;;;;;;;;5013193;28;20026;-68
2022/12/14 02:02:14;;;;;;;6.57;4.25;;;;;;;;;;5011471;28;20025;-67
2022/12/14 02:04:43;;;;;;;6.38;4.38;;;;;;;;;;5013056;28;20483;-67
2022/12/14 02:07:10;;;;;;;6.95;5.30;;;;;;;;;;5012910;28;20017;-68
2022/12/14 02:09:38;;;;;;;6.93;4.90;;;;;;;;;;5012924;28;20029;-68
2022/12/14 02:12:07;;;;;;;9.25;4.47;;;;;;;;;;5013249;28;20034;-67
2022/12/14 02:14:33;;;;;;;6.70;4.65;;;;;;;;;;5012798;28;20053;-67
2022/12/14 02:17:00;;;;;;;5.68;4.78;;;;;;;;;;5013002;28;20018;-67
2022/12/14 02:19:27;;;;;;;6.90;4.40;;;;;;;;;;5012868;28;20032;-67
2022/12/14 02:22:06;;;;;;;7.85;4.57;;;;;;;;;;5012896;28;20052;-67
2022/12/14 02:24:54;;;;;;;7.35;4.60;;;;;;;;;;5012602;28;20022;-67
2022/12/14 02:27:39;;;;;;;7.72;4.55;;;;;;;;;;5012632;28;20032;-67
2022/12/14 02:30:07;;;;;;;9.70;5.88;;;;;;;;;;5012205;28;20461;-67
2022/12/14 02:32:48;;;;;;;10.75;5.35;;;;;;;;;;5011902;28;20029;-67
2022/12/14 02:35:18;;;;;;;12.05;6.93;;;;;;;;;;5011531;28;20044;-67
2022/12/14 02:38:07;;;;;;;10.50;7.85;;;;;;;;;;5011416;28;20038;-67
2022/12/14 02:40:52;;;;;;;6.75;4.47;;;;;;;;;;5012535;28;20398;-67
2022/12/14 02:43:31;;;;;;;12.30;8.32;;;;;;;;;;4992711;28;20036;-68
2022/12/14 02:46:03;;;;;;;7.97;5.82;;;;;;;;;;4992561;28;20058;-67
2022/12/14 02:48:37;;;;;;;6.53;5.03;;;;;;;;;;5008912;28;20491;-68
2022/12/14 02:51:25;;;;;;;7.75;5.88;;;;;;;;;;5012419;28;20036;-67
2022/12/14 02:53:57;;;;;;;8.85;6.05;;;;;;;;;;5012538;28;20026;-67
2022/12/14 02:56:26;;;;;;;8.52;6.35;;;;;;;;;;5012301;28;20032;-67
2022/12/14 02:58:53;;;;;;;8.63;6.63;;;;;;;;;;5027146;28;20516;-67
2022/12/14 03:01:21;;;;;;;11.18;6.70;;;;;;;;;;5012144;28;20032;-67
2022/12/14 03:03:47;;;;;;;11.93;7.78;;;;;;;;;;5012640;28;20083;-68
2022/12/14 03:06:16;;;;;;;12.93;7.35;;;;;;;;;;5012520;28;20026;-68
2022/12/14 03:08:43;;;;;;;9.05;6.05;;;;;;;;;;5012104;28;20014;-67
2022/12/14 03:11:12;;;;;;;8.32;6.38;;;;;;;;;;5012060;28;20064;-67
2022/12/14 03:14:00;;;;;;;10.75;7.38;;;;;;;;;;5011794;28;20448;-67
2022/12/14 03:16:44;;;;;;;9.73;6.47;;;;;;;;;;5012078;28;20033;-67
2022/12/14 03:19:15;;;;;;;11.38;6.60;;;;;;;;;;5012144;28;20026;-67
2022/12/14 03:21:44;;;;;;;9.27;6.85;;;;;;;;;;5012333;28;20032;-67
2022/12/14 03:24:12;;;;;;;7.57;5.93;;;;;;;;;;5012219;28;20026;-68
2022/12/14 03:27:01;;;;;;;9.50;6.88;;;;;;;;;;5012219;28;20030;-67
2022/12/14 03:29:37;;;;;;;10.15;5.75;;;;;;;;;;5011468;28;20525;-67
2022/12/14 03:32:15;;;;;;;7.38;5.30;;;;;;;;;;5011959;28;20034;-67
2022/12/14 03:34:57;;;;;;;7.63;5.13;;;;;;;;;;5012073;28;20028;-67
2022/12/14 03:37:30;;;;;;;8.90;5.68;;;;;;;;;;5012070;28;20052;-67
2022/12/14 03:39:57;;;;;;;8.70;6.43;;;;;;;;;;5011812;28;20030;-67
2022/12/14 03:42:25;;;;;;;9.43;5.60;;;;;;;;;;5011616;28;20025;-67
2022/12/14 03:45:03;;;;;;;8.55;4.68;;;;;;;;;;5014324;28;20044;-67
2022/12/14 03:47:39;;;;;;;6.85;4.75;;;;;;;;;;5015265;28;20022;-67
2022/12/14 03:50:15;;;;;;;8.68;5.55;;;;;;;;;;5015593;28;20342;-67
2022/12/14 03:52:50;;;;;;;6.47;4.60;;;;;;;;;;5015597;28;20022;-67
2022/12/14 03:55:31;;;;;;;5.88;4.50;;;;;;;;;;5030329;28;20068;-67
2022/12/14 03:58:08;;;;;;;6.88;4.50;;;;;;;;;;5015082;28;20032;-67
2022/12/14 04:00:43;;;;;;;6.15;4.47;;;;;;;;;;5015395;28;20026;-66
2022/12/14 04:03:15;;;;;;;7.47;4.03;;;;;;;;;;5014063;28;20480;-67
2022/12/14 04:05:45;;;;;;;6.43;4.93;;;;;;;;;;5015534;28;20032;-67
2022/12/14 04:08:22;;;;;;;6.72;5.07;;;;;;;;;;5015255;28;20025;-67
2022/12/14 04:19:15;;;;;;;8.60;5.32;;;;;;;;;;5015248;28;20032;-67
2022/12/14 04:21:44;;;;;;;7.60;5.50;;;;;;;;;;5015230;28;20022;-67
2022/12/14 04:27:01;;;;;;;7.43;5.80;;;;;;;;;;5014404;28;20018;-67
2022/12/14 04:32:19;;;;;;;20.58;11.05;;;;;;;;;;5014920;28;20040;-67
2022/12/14 04:34:47;;;;;;;16.33;10.18;;;;;;;;;;5014795;28;20028;-67
2022/12/14 04:37:16;;;;;;;14.07;9.48;;;;;;;;;;5014420;28;20044;-67
2022/12/14 04:39:52;;;;;;;15.48;9.57;;;;;;;;;;5014684;28;20033;-67
2022/12/14 04:42:20;;;;;;;15.15;9.30;;;;;;;;;;5014497;28;20030;-67
2022/12/14 04:44:51;;;;;;;24.67;14.73;;;;;;;;;;5013405;28;20025;-67
2022/12/14 04:47:19;;;;;;;22.98;13.07;;;;;;;;;;5014311;28;20037;-67
2022/12/14 04:49:50;;;;;;;22.17;11.75;;;;;;;;;;5013502;28;20026;-67
2022/12/14 04:52:28;;;;;;;17.85;10.85;;;;;;;;;;5014433;28;20018;-67
2022/12/14 04:55:03;;;;;;;32.50;18.73;;;;;;;;;;5014046;28;20038;-66
2022/12/14 04:57:41;;;;;;;32.55;19.00;;;;;;;;;;5014044;28;20028;-67
2022/12/14 05:00:08;;;;;;;29.52;16.92;;;;;;;;;;5014304;28;20030;-66
2022/12/14 05:02:37;;;;;;;23.95;14.27;;;;;;;;;;5014451;28;20029;-67
2022/12/14 05:05:10;;;;;;;17.95;10.75;;;;;;;;;;5014167;28;20075;-66
2022/12/14 05:07:55;;;;;;;17.67;10.65;;;;;;;;;;5014494;28;20022;-67
2022/12/14 05:10:38;;;;;;;15.77;9.30;;;;;;;;;;5013707;28;20068;-67
2022/12/14 05:13:07;;;;;;;15.98;9.32;;;;;;;;;;5014075;28;20022;-66
2022/12/14 05:15:35;;;;;;;10.73;7.88;;;;;;;;;;5014037;28;20025;-67
2022/12/14 05:18:03;;;;;;;12.63;7.32;;;;;;;;;;5013815;28;20029;-67
2022/12/14 05:20:29;;;;;;;11.13;7.63;;;;;;;;;;5014079;28;20033;-67
2022/12/14 05:22:56;;;;;;;13.40;8.85;;;;;;;;;;5012836;28;20026;-67
2022/12/14 05:25:22;;;;;;;13.52;8.63;;;;;;;;;;5013299;28;20041;-67
2022/12/14 05:27:48;;;;;;;13.57;8.93;;;;;;;;;;5014016;28;20028;-66
2022/12/14 05:30:15;;;;;;;13.35;8.85;;;;;;;;;;5013806;28;20041;-66
2022/12/14 05:32:41;;;;;;;13.95;8.52;;;;;;;;;;5013605;28;20026;-67
2022/12/14 05:35:09;;;;;;;12.80;8.27;;;;;;;;;;5013529;28;20022;-66
2022/12/14 05:37:36;;;;;;;13.57;9.38;;;;;;;;;;5012321;28;20041;-67
2022/12/14 05:40:02;;;;;;;18.10;11.85;;;;;;;;;;5013411;28;20038;-67
2022/12/14 05:42:30;;;;;;;17.58;11.20;;;;;;;;;;5013457;28;20021;-67
2022/12/14 05:44:56;;;;;;;14.98;10.13;;;;;;;;;;5012313;28;20487;-66
2022/12/14 05:47:23;;;;;;;15.45;10.23;;;;;;;;;;5013232;28;20022;-67
2022/12/14 05:49:49;;;;;;;14.00;8.95;;;;;;;;;;5013182;28;20030;-67
2022/12/14 05:52:16;;;;;;;14.13;8.75;;;;;;;;;;5013321;28;20056;-67
2022/12/14 05:54:42;;;;;;;13.68;9.20;;;;;;;;;;5013150;28;20026;-67
2022/12/14 05:57:09;;;;;;;17.65;10.82;;;;;;;;;;5013315;28;20025;-67
2022/12/14 05:59:35;;;;;;;19.98;12.15;;;;;;;;;;5013500;28;20025;-66
2022/12/14 06:02:01;;;;;;;19.23;12.43;;;;;;;;;;5013211;28;20347;-67
2022/12/14 06:04:28;;;;;;;15.82;11.20;;;;;;;;;;5012033;28;20032;-66
2022/12/14 06:06:54;;;;;;;15.98;9.30;;;;;;;;;;5012428;28;20030;-67
2022/12/14 06:09:21;;;;;;;14.13;9.82;;;;;;;;;;5012015;28;20025;-66
2022/12/14 06:11:48;;;;;;;11.02;7.45;;;;;;;;;;5013305;28;20075;-66
2022/12/14 06:14:16;;;;;;;9.50;6.82;;;;;;;;;;5012840;28;20375;-66
2022/12/14 06:16:43;;;;;;;9.70;6.30;;;;;;;;;;5012578;28;20038;-66
2022/12/14 06:19:10;;;;;;;7.32;5.70;;;;;;;;;;5012792;28;20018;-67
2022/12/14 06:21:37;;;;;;;9.15;6.43;;;;;;;;;;5027975;28;20033;-67
2022/12/14 06:24:04;;;;;;;7.63;5.80;;;;;;;;;;5012327;28;20026;-66
2022/12/14 06:26:31;;;;;;;9.02;6.75;;;;;;;;;;5012929;28;20394;-67
2022/12/14 06:28:58;;;;;;;10.80;7.63;;;;;;;;;;5012739;28;20028;-66
2022/12/14 06:31:26;;;;;;;15.70;10.13;;;;;;;;;;5012491;28;20040;-66
2022/12/14 06:33:53;;;;;;;20.30;13.20;;;;;;;;;;5012778;28;20029;-67
2022/12/14 06:36:22;;;;;;;7.68;5.90;;;;;;;;;;5012705;28;20022;-66
2022/12/14 06:38:52;;;;;;;8.27;5.57;;;;;;;;;;5012296;28;20392;-66
2022/12/14 06:41:19;;;;;;;9.45;6.75;;;;;;;;;;5012714;28;20017;-66
2022/12/14 06:43:46;;;;;;;16.13;8.75;;;;;;;;;;5012584;28;20410;-66
2022/12/14 06:46:13;;;;;;;14.63;9.35;;;;;;;;;;5011112;28;20026;-66
2022/12/14 06:48:39;;;;;;;13.85;9.98;;;;;;;;;;5012302;28;20034;-67
2022/12/14 06:51:06;;;;;;;13.45;10.10;;;;;;;;;;5012048;28;20038;-67
2022/12/14 06:53:32;;;;;;;22.20;15.00;;;;;;;;;;5012403;28;20022;-66
2022/12/14 06:56:08;;;;;;;24.10;17.40;;;;;;;;;;5012205;28;20026;-67
2022/12/14 06:58:35;;;;;;;23.83;16.08;;;;;;;;;;5011239;28;20040;-67
2022/12/14 07:01:02;;;;;;;22.92;16.02;;;;;;;;;;5012389;28;20084;-67
2022/12/14 07:03:28;;;;;;;25.58;16.35;;;;;;;;;;5012069;28;20513;-66
2022/12/14 07:05:56;;;;;;;35.10;20.23;;;;;;;;;;5011736;28;20036;-67
2022/12/14 07:08:22;;;;;;;31.35;18.58;;;;;;;;;;5012308;28;20026;-67
2022/12/14 07:10:48;;;;;;;26.10;15.70;;;;;;;;;;5011306;28;20049;-67
2022/12/14 07:13:15;;;;;;;35.30;21.00;;;;;;;;;;5012146;28;20028;-67
2022/12/14 07:15:41;;;;;;;33.90;18.10;;;;;;;;;;5012087;28;20498;-66
2022/12/14 07:18:07;;;;;;;26.83;15.48;;;;;;;;;;5012452;28;20034;-67
2022/12/14 07:20:33;;;;;;;21.88;15.23;;;;;;;;;;5015411;28;20072;-67
2022/12/14 07:23:00;;;;;;;33.35;19.58;;;;;;;;;;5016037;28;20029;-67
2022/12/14 07:25:26;;;;;;;32.25;18.90;;;;;;;;;;5016266;28;20032;-66
2022/12/14 07:27:52;;;;;;;49.90;29.55;;;;;;;;;;5016125;28;20022;-67
2022/12/14 07:30:19;;;;;;;28.15;17.23;;;;;;;;;;5013281;28;20044;-67
2022/12/14 07:32:45;;;;;;;26.90;16.35;;;;;;;;;;5014714;28;20471;-67
2022/12/14 07:35:12;;;;;;;23.77;15.77;;;;;;;;;;5013005;28;20037;-67
2022/12/14 07:37:38;;;;;;;28.95;18.10;;;;;;;;;;5015247;28;20046;-66
2022/12/14 07:40:04;;;;;;;25.58;16.48;;;;;;;;;;5014601;28;20045;-67
2022/12/14 07:42:31;;;;;;;26.33;14.93;;;;;;;;;;5014786;28;20142;-66
2022/12/14 07:44:59;;;;;;;21.98;14.75;;;;;;;;;;5015477;28;20034;-67
2022/12/14 07:47:29;;;;;;;24.88;16.33;;;;;;;;;;5013396;28;20029;-67
2022/12/14 07:49:55;;;;;;;22.00;14.90;;;;;;;;;;5013586;28;20026;-66
2022/12/14 07:52:21;;;;;;;26.92;15.95;;;;;;;;;;5014884;28;20533;-67
2022/12/14 07:54:48;;;;;;;18.50;12.02;;;;;;;;;;5014111;28;20040;-67
2022/12/14 07:57:14;;;;;;;18.50;11.77;;;;;;;;;;5014498;28;20029;-67
2022/12/14 07:59:41;;;;;;;22.35;13.10;;;;;;;;;;5014715;28;20386;-67
2022/12/14 08:02:10;;;;;;;22.20;13.05;;;;;;;;;;5012672;28;20079;-67
2022/12/14 08:04:37;;;;;;;22.13;13.63;;;;;;;;;;5014158;28;20030;-67
2022/12/14 08:07:03;;;;;;;22.40;13.35;;;;;;;;;;5014542;28;20380;-66
2022/12/14 08:09:30;;;;;;;29.70;16.83;;;;;;;;;;5013549;28;20028;-67
2022/12/14 08:11:56;;;;;;;31.42;16.90;;;;;;;;;;5014411;28;20044;-67
2022/12/14 08:14:22;;;;;;;29.25;16.63;;;;;;;;;;5014536;28;20452;-67
2022/12/14 08:16:49;;;;;;;35.67;19.05;;;;;;;;;;5014005;28;20338;-67
2022/12/14 08:19:16;;;;;;;33.05;18.05;;;;;;;;;;5014091;28;20030;-67
2022/12/14 08:21:44;;;;;;;40.15;20.35;;;;;;;;;;5014689;28;20018;-67
2022/12/14 08:24:11;;;;;;;43.20;22.50;;;;;;;;;;5014371;28;20022;-67
2022/12/14 08:26:38;;;;;;;35.30;21.80;;;;;;;;;;5014283;28;20025;-67
2022/12/14 08:29:05;;;;;;;34.80;20.08;;;;;;;;;;5014225;28;20018;-66
2022/12/14 08:31:31;;;;;;;22.08;12.88;;;;;;;;;;5012887;28;20541;-67
2022/12/14 08:33:59;;;;;;;19.05;12.60;;;;;;;;;;5013606;28;20390;-67
2022/12/14 08:36:26;;;;;;;17.30;11.95;;;;;;;;;;5013798;28;20029;-67
2022/12/14 08:39:04;;;;;;;14.55;10.63;;;;;;;;;;5013779;28;20045;-66
2022/12/14 08:41:30;;;;;;;17.70;11.30;;;;;;;;;;5013803;28;20026;-66
2022/12/14 08:43:57;;;;;;;16.70;11.93;;;;;;;;;;5012474;28;20030;-66
2022/12/14 08:46:25;;;;;;;17.85;11.70;;;;;;;;;;5013482;28;20491;-67
2022/12/14 08:48:52;;;;;;;15.35;10.90;;;;;;;;;;5013363;28;20038;-67
2022/12/14 08:51:19;;;;;;;13.38;9.43;;;;;;;;;;5013643;28;20518;-67
2022/12/14 08:53:46;;;;;;;20.63;12.55;;;;;;;;;;5013989;28;20036;-67
2022/12/14 08:56:14;;;;;;;13.63;9.77;;;;;;;;;;5013610;28;20410;-67
2022/12/14 08:58:41;;;;;;;14.55;9.80;;;;;;;;;;5011334;28;20052;-67
2022/12/14 09:01:12;;;;;;;17.52;10.80;;;;;;;;;;5013411;28;20030;-66
2022/12/14 09:03:38;;;;;;;;;;;;;;;;;;5011428;28;20034;-67
2022/12/14 09:06:05;;;;;;;84.25;43.88;;;;;;;;;;5012208;28;19905;-67
2022/12/14 09:08:32;;;;;;;18.90;13.85;;;;;;;;;;5012599;28;20033;-67
2022/12/14 09:10:58;;;;;;;20.10;14.98;;;;;;;;;;5011940;28;20513;-67
2022/12/14 09:13:25;;;;;;;25.33;15.82;;;;;;;;;;5012645;28;20036;-66
2022/12/14 09:15:59;;;;;;;24.20;14.90;;;;;;;;;;5012244;28;20021;-67
2022/12/14 09:18:25;;;;;;;22.58;14.40;;;;;;;;;;5012771;28;20072;-67
2022/12/14 09:20:54;;;;;;;21.50;15.25;;;;;;;;;;5013018;28;20030;-67
2022/12/14 09:23:22;;;;;;;33.40;27.48;;;;;;;;;;5011742;28;20091;-67
2022/12/14 09:25:58;;;;;;;23.92;18.10;;;;;;;;;;5012791;28;20056;-67
2022/12/14 09:28:24;;;;;;;24.17;17.55;;;;;;;;;;5011432;28;20497;-67
2022/12/14 09:30:54;;;;;;;23.48;17.23;;;;;;;;;;5012669;28;20058;-67
2022/12/14 09:33:21;;;;;;;25.10;16.25;;;;;;;;;;5011828;28;20022;-67
2022/12/14 09:35:47;;;;;;;21.15;15.60;;;;;;;;;;5012552;28;20060;-67
2022/12/14 09:38:13;;;;;;;22.75;14.25;;;;;;;;;;5011076;28;20507;-67
2022/12/14 09:40:42;;;;;;;17.58;13.35;;;;;;;;;;5012850;28;20042;-67
2022/12/14 09:43:10;;;;;;;14.82;11.48;;;;;;;;;;5009315;28;20025;-67
2022/12/14 09:45:43;;;;;;;17.58;11.95;;;;;;;;;;5010946;28;20026;-67
2022/12/14 09:48:19;;;;;;;16.70;12.82;;;;;;;;;;5010711;28;20057;-67
2022/12/14 09:50:49;;;;;;;15.93;11.65;;;;;;;;;;5012272;28;20022;-67
2022/12/14 09:53:17;;;;;;;16.67;11.00;;;;;;;;;;5011489;28;20426;-67
2022/12/14 09:55:43;;;;;;;7.85;6.30;;;;;;;;;;5012189;28;20025;-67
2022/12/14 09:58:19;;;;;;;8.48;6.63;;;;;;;;;;5012473;28;20028;-67
2022/12/14 10:00:48;;;;;;;10.55;6.93;;;;;;;;;;5012133;28;20026;-67
2022/12/14 10:03:33;;;;;;;8.88;6.82;;;;;;;;;;5012227;28;20024;-67
2022/12/14 10:06:18;;;;;;;9.73;7.57;;;;;;;;;;5012126;28;20025;-67
2022/12/14 10:08:50;;;;;;;11.52;7.70;;;;;;;;;;5012189;28;20398;-67
2022/12/14 10:11:29;;;;;;;10.07;7.78;;;;;;;;;;5011841;28;20380;-67
2022/12/14 10:14:14;;;;;;;9.93;6.57;;;;;;;;;;5011777;28;20475;-67
2022/12/14 10:16:47;;;;;;;8.32;7.10;;;;;;;;;;5012004;28;20495;-67
2022/12/14 10:19:19;;;;;;;9.43;6.75;;;;;;;;;;5010867;28;20022;-67
2022/12/14 10:21:49;;;;;;;9.38;6.88;;;;;;;;;;5011636;28;20034;-67
2022/12/14 10:24:19;;;;;;;11.60;8.15;;;;;;;;;;5012082;28;20022;-67
2022/12/14 10:26:48;;;;;;;12.00;7.97;;;;;;;;;;5011957;28;20034;-67
2022/12/14 10:29:14;;;;;;;11.23;8.15;;;;;;;;;;5011408;28;20014;-67
2022/12/14 10:31:46;;;;;;;12.50;9.13;;;;;;;;;;5008397;28;20037;-67
2022/12/14 10:34:16;;;;;;;10.82;8.48;;;;;;;;;;5011010;28;20173;-67
2022/12/14 10:37:03;;;;;;;14.52;10.73;;;;;;;;;;5011116;28;20036;-66
2022/12/14 10:39:54;;;;;;;15.32;9.60;;;;;;;;;;4989561;28;20531;-67
2022/12/14 10:42:20;;;;;;;7.35;6.25;;;;;;;;;;5000984;28;20533;-67
2022/12/14 10:44:56;;;;;;;9.80;7.18;;;;;;;;;;5009211;28;20038;-67
2022/12/14 10:47:34;;;;;;;9.18;7.25;;;;;;;;;;5001904;28;20052;-67
2022/12/14 10:50:17;;;;;;;10.70;7.38;;;;;;;;;;4989717;28;20045;-67
2022/12/14 10:52:44;;;;;;;11.55;8.18;;;;;;;;;;4989925;28;20028;-65
2022/12/14 10:55:14;;;;;;;12.48;8.18;;;;;;;;;;4989285;28;20031;-67
2022/12/14 10:57:40;;;;;;;11.95;8.35;;;;;;;;;;4989035;28;20085;-67
2022/12/14 11:00:14;;;;;;;13.32;8.00;;;;;;;;;;4989446;28;20038;-67
2022/12/14 11:02:42;;;;;;;11.88;8.82;;;;;;;;;;4989344;28;20038;-67
2022/12/14 11:05:28;;;;;;;12.88;8.88;;;;;;;;;;4989219;28;20019;-67
2022/12/14 11:07:55;;;;;;;10.73;8.23;;;;;;;;;;4989507;28;20575;-67
2022/12/14 11:10:25;;;;;;;10.77;7.80;;;;;;;;;;4972911;28;20037;-66
2022/12/14 11:13:10;;;;;;;9.25;6.97;;;;;;;;;;4989231;28;20048;-67
2022/12/14 11:15:37;;;;;;;10.23;7.03;;;;;;;;;;4989642;28;20040;-67
2022/12/14 11:18:05;;;;;;;17.45;8.85;;;;;;;;;;4991501;28;20026;-67
2022/12/14 11:20:32;;;;;;;10.13;7.57;;;;;;;;;;4991458;28;20037;-67
2022/12/14 11:23:06;;;;;;;11.05;7.30;;;;;;;;;;5016591;28;20018;-66
2022/12/14 11:25:40;;;;;;;15.05;7.47;;;;;;;;;;5023264;28;20078;-67
2022/12/14 11:28:42;;;;;;;13.68;9.32;;;;;;;;;;5030518;28;20075;-67
2022/12/14 11:31:12;;;;;;;12.93;9.93;;;;;;;;;;5008501;28;20132;-67
2022/12/14 11:33:46;;;;;;;11.63;9.00;;;;;;;;;;5007774;28;20080;-67
2022/12/14 11:36:23;;;;;;;12.73;8.18;;;;;;;;;;5008564;28;20037;-67
2022/12/14 11:39:02;;;;;;;8.50;5.97;;;;;;;;;;4993905;28;20137;-67
2022/12/14 11:41:31;;;;;;;7.38;5.85;;;;;;;;;;4988649;28;20499;-66
2022/12/14 11:44:16;;;;;;;10.45;6.03;;;;;;;;;;4989240;28;20511;-67
2022/12/14 11:46:45;;;;;;;7.15;5.15;;;;;;;;;;4989334;28;20104;-67
2022/12/14 11:49:23;;;;;;;3.38;2.90;;;;;;;;;;4988910;28;20033;-67
2022/12/14 11:51:58;;;;;;;11.45;9.70;;;;;;;;;;4989302;28;20046;-67
2022/12/14 11:54:25;;;;;;;14.38;11.18;;;;;;;;;;4990919;28;20559;-67
2022/12/14 11:56:56;;;;;;;8.30;6.68;;;;;;;;;;4990485;28;20030;-67
2022/12/14 11:59:30;;;;;;;6.65;5.88;;;;;;;;;;4989388;28;20414;-67
2022/12/14 12:02:06;;;;;;;15.70;12.35;;;;;;;;;;4989147;28;20406;-67
2022/12/14 12:04:34;;;;;;;15.23;11.25;;;;;;;;;;4995375;28;20501;-67
2022/12/14 12:07:11;;;;;;;11.77;7.47;;;;;;;;;;5014506;28;20026;-67
2022/12/14 12:09:37;;;;;;;7.57;4.60;;;;;;;;;;5014729;28;20040;-67
2022/12/14 12:12:03;;;;;;;6.68;4.72;;;;;;;;;;5014052;28;20040;-67
2022/12/14 12:14:34;;;;;;;4.97;3.50;;;;;;;;;;5014575;28;20036;-67
2022/12/14 12:17:00;;;;;;;8.98;5.70;;;;;;;;;;5014639;28;20040;-67
2022/12/14 12:19:29;;;;;;;5.95;4.70;;;;;;;;;;5014538;28;20034;-67
2022/12/14 12:21:59;;;;;;;7.05;4.65;;;;;;;;;;5014528;28;20018;-67
2022/12/14 12:24:34;;;;;;;6.72;4.90;;;;;;;;;;5014284;28;20084;-67
2022/12/14 12:27:10;;;;;;;8.27;4.78;;;;;;;;;;5013383;28;20478;-67
2022/12/14 12:29:44;;;;;;;6.95;4.97;;;;;;;;;;5014935;28;20033;-67
2022/12/14 12:32:14;;;;;;;6.90;4.93;;;;;;;;;;5014647;28;20042;-67
2022/12/14 12:34:51;;;;;;;20.58;12.70;;;;;;;;;;5011781;28;20030;-67
2022/12/14 12:37:19;;;;;;;11.98;6.80;;;;;;;;;;5013503;28;20050;-67
2022/12/14 12:39:46;;;;;;;14.23;9.73;;;;;;;;;;5011602;28;20044;-67
2022/12/14 12:42:15;;;;;;;5.40;4.20;;;;;;;;;;5028799;28;20029;-67
2022/12/14 12:44:48;;;;;;;4.82;3.72;;;;;;;;;;5013773;28;20087;-67
2022/12/14 12:47:28;;;;;;;48.38;22.92;;;;;;;;;;5013446;28;20025;-67
2022/12/14 12:49:58;;;;;;;9.35;4.18;;;;;;;;;;5012638;28;20028;-66
2022/12/14 12:52:25;;;;;;;15.05;9.10;;;;;;;;;;5013573;28;20042;-67
2022/12/14 12:54:55;;;;;;;13.10;7.35;;;;;;;;;;5017075;28;20034;-67
2022/12/14 12:57:22;;;;;;;13.43;7.53;;;;;;;;;;5019330;28;20021;-66
2022/12/14 12:59:50;;;;;;;68.88;31.20;;;;;;;;;;5032870;28;20014;-67
2022/12/14 13:02:31;;;;;;;11.82;6.03;;;;;;;;;;5033669;28;20036;-67
2022/12/14 13:04:58;;;;;;;5.00;3.55;;;;;;;;;;5033443;28;20108;-66
2022/12/14 13:07:25;;;;;;;13.30;8.23;;;;;;;;;;5023467;28;20060;-66
2022/12/14 13:10:27;;;;;;;11.73;7.15;;;;;;;;;;5021743;28;20033;-67
2022/12/14 13:12:53;;;;;;;9.57;5.47;;;;;;;;;;5028491;28;20036;-67
2022/12/14 13:15:25;;;;;;;12.48;7.28;;;;;;;;;;5013076;28;20048;-67
2022/12/14 13:18:24;;;;;;;6.20;2.80;;;;;;;;;;5012282;28;20494;-67
2022/12/14 13:20:54;;;;;;;3.67;2.60;;;;;;;;;;4991235;28;20065;-67
2022/12/14 13:23:21;;;;;;;8.20;4.57;;;;;;;;;;4990730;28;20573;-66
2022/12/14 13:26:06;;;;;;;7.35;3.45;;;;;;;;;;4991286;28;20030;-67
2022/12/14 13:28:50;;;;;;;6.07;3.35;;;;;;;;;;4991178;28;20037;-67
2022/12/14 13:31:29;;;;;;;7.60;3.60;;;;;;;;;;4990968;28;20038;-67
2022/12/14 13:34:07;;;;;;;5.25;3.40;;;;;;;;;;4990857;28;20047;-67
2022/12/14 13:36:33;;;;;;;8.70;4.45;;;;;;;;;;4991146;28;20035;-67
2022/12/14 13:39:08;;;;;;;11.02;4.63;;;;;;;;;;4990450;28;20046;-67
2022/12/14 13:41:49;;;;;;;10.52;6.43;;;;;;;;;;4990374;28;20064;-68
2022/12/14 13:44:34;;;;;;;16.63;9.93;;;;;;;;;;4995504;28;20180;-67
2022/12/14 13:47:02;;;;;;;10.00;6.75;;;;;;;;;;4993192;28;20036;-67
2022/12/14 13:49:28;;;;;;;11.18;5.85;;;;;;;;;;4990354;28;20061;-68
2022/12/14 13:51:55;;;;;;;10.13;6.10;;;;;;;;;;4990239;28;20042;-67
2022/12/14 13:54:28;;;;;;;8.50;5.53;;;;;;;;;;4990204;28;20030;-67
2022/12/14 13:57:04;;;;;;;8.30;5.50;;;;;;;;;;5005708;28;20112;-67
2022/12/14 13:59:34;;;;;;;12.90;6.20;;;;;;;;;;5012042;28;20028;-67
2022/12/14 14:02:01;;;;;;;5.13;2.90;;;;;;;;;;5011778;28;20030;-67
2022/12/14 14:04:29;;;;;;;6.65;3.25;;;;;;;;;;5012195;28;20032;-67
2022/12/14 14:07:16;;;;;;;11.93;6.38;;;;;;;;;;5011987;28;20026;-66
2022/12/14 14:09:43;;;;;;;6.50;2.90;;;;;;;;;;5012160;28;20030;-67
2022/12/14 14:12:28;;;;;;;6.22;2.55;;;;;;;;;;5011731;28;20041;-67
2022/12/14 14:14:57;;;;;;;9.32;5.03;;;;;;;;;;5012134;28;20092;-68
2022/12/14 14:17:39;;;;;;;3.47;1.70;;;;;;;;;;5012531;28;20033;-67
2022/12/14 14:20:24;;;;;;;6.47;2.30;;;;;;;;;;5011894;28;20026;-67
2022/12/14 14:23:09;;;;;;;6.45;2.45;;;;;;;;;;5011951;28;20022;-70
2022/12/14 14:25:40;;;;;;;6.80;4.38;;;;;;;;;;5012416;28;20041;-71
2022/12/14 14:28:10;;;;;;;4.25;2.20;;;;;;;;;;5006698;28;20036;-71
2022/12/14 14:30:41;;;;;;;8.27;3.13;;;;;;;;;;5011963;28;20046;-71
2022/12/14 14:33:26;;;;;;;4.75;2.00;;;;;;;;;;5012120;28;20602;-71
2022/12/14 14:36:06;;;;;;;5.20;1.88;;;;;;;;;;5010982;28;20034;-70
2022/12/14 14:38:32;;;;;;;4.25;1.80;;;;;;;;;;5011797;28;20060;-71
2022/12/14 14:41:00;;;;;;;5.95;1.40;;;;;;;;;;5011934;28;20018;-71
2022/12/14 14:43:27;;;;;;;5.10;1.92;;;;;;;;;;5011046;28;20033;-71
2022/12/14 14:45:54;;;;;;;7.18;2.60;;;;;;;;;;5011544;28;20409;-72
2022/12/14 14:48:25;;;;;;;9.50;3.72;;;;;;;;;;5011618;28;20035;-72
2022/12/14 14:51:21;;;;;;;11.88;4.90;;;;;;;;;;5011170;28;20033;-72
2022/12/14 14:53:47;;;;;;;11.63;4.68;;;;;;;;;;4998309;28;20533;-72
2022/12/14 14:56:29;;;;;;;7.93;4.07;;;;;;;;;;5010217;28;20075;-70
2022/12/14 14:59:13;;;;;;;9.50;3.58;;;;;;;;;;5011672;28;20651;-72
2022/12/14 15:02:00;;;;;;;8.02;3.45;;;;;;;;;;5011564;28;20028;-72
2022/12/14 15:04:35;;;;;;;8.68;3.78;;;;;;;;;;5009651;28;20030;-72
2022/12/14 15:07:04;;;;;;;6.40;3.13;;;;;;;;;;5010671;28;20032;-72
2022/12/14 15:09:32;;;;;;;5.90;3.17;;;;;;;;;;5011764;28;20040;-72